Time;durP1;ratioP1;P1;durP2;ratioP2;P2;SDS_P1;SDS_P2;PMS_P1;PMS_P2;Temp;Humidity;BMP_temperature;BMP_pressure;BME280_temperature;BME280_humidity;BME280_pressure;Samples;Min_cycle;Max_cycle;Signal;HPM_P1;HPM_P2
2021/05/23 00:01:17;;;;;;;10.13;1.75;;;;;;;7.18;52.64;100655.28;5003946;28;20053;-70
2021/05/23 00:03:43;;;;;;;6.68;0.90;;;;;;;7.74;51.42;100643.16;5005262;28;20034;-69
2021/05/23 00:06:08;;;;;;;9.18;0.60;;;;;;;7.65;51.36;100646.06;5005784;28;20034;-70
2021/05/23 00:08:36;;;;;;;6.93;1.15;;;;;;;7.66;51.11;100655.56;5006591;28;20030;-70
2021/05/23 00:11:08;;;;;;;3.03;0.75;;;;;;;7.94;50.79;100654.69;5005163;28;20499;-69
2021/05/23 00:13:39;;;;;;;5.68;0.73;;;;;;;7.93;50.73;100663.38;5006268;28;20045;-69
2021/05/23 00:16:07;;;;;;;2.65;0.68;;;;;;;7.86;51.14;100662.72;5005265;28;20037;-71
2021/05/23 00:18:36;;;;;;;5.00;0.70;;;;;;;7.86;51.02;100661.88;5006815;28;20434;-71
2021/05/23 00:21:03;;;;;;;4.05;0.60;;;;;;;7.66;51.28;100665.13;5004931;28;20091;-69
2021/05/23 00:23:29;;;;;;;5.60;0.60;;;;;;;7.38;52.01;100658.13;5004146;28;20044;-69
2021/05/23 00:25:55;;;;;;;7.45;1.83;;;;;;;7.63;51.36;100655.66;5005713;28;20698;-69
2021/05/23 00:28:21;;;;;;;6.60;1.13;;;;;;;7.73;50.93;100657.09;5005247;28;20117;-71
2021/05/23 00:30:47;;;;;;;7.18;0.68;;;;;;;7.33;51.15;100653.06;5005603;28;20603;-70
2021/05/23 00:33:13;;;;;;;2.13;0.70;;;;;;;7.41;50.71;100663.25;5006657;28;20057;-69
2021/05/23 00:35:39;;;;;;;5.35;0.90;;;;;;;7.43;50.83;100653.63;5004224;28;20034;-69
2021/05/23 00:38:07;;;;;;;6.05;0.50;;;;;;;7.47;51.01;100657.00;5021152;28;20034;-69
2021/05/23 00:40:34;;;;;;;4.78;0.75;;;;;;;7.36;50.92;100666.88;5005272;28;20069;-67
2021/05/23 00:42:59;;;;;;;5.75;0.90;;;;;;;7.23;51.07;100672.44;5004183;28;20034;-69
2021/05/23 00:45:25;;;;;;;5.40;1.05;;;;;;;7.16;51.50;100678.72;5005518;28;20068;-69
2021/05/23 00:47:51;;;;;;;4.10;0.93;;;;;;;6.98;51.80;100676.66;5005337;28;20034;-68
2021/05/23 00:50:23;;;;;;;10.55;0.75;;;;;;;7.30;50.82;100676.53;5006214;28;20383;-68
2021/05/23 00:52:51;;;;;;;8.23;1.02;;;;;;;6.75;52.45;100675.50;5004751;28;20636;-69
2021/05/23 00:55:19;;;;;;;3.70;0.73;;;;;;;7.04;51.18;100666.06;5005327;28;20033;-67
2021/05/23 00:57:46;;;;;;;4.43;1.52;;;;;;;6.81;51.47;100675.34;5003944;28;20034;-68
2021/05/23 01:00:32;;;;;;;6.40;0.68;;;;;;;6.72;51.61;100680.78;5006187;28;20033;-71
2021/05/23 01:03:00;;;;;;;10.73;1.25;;;;;;;6.39;52.03;100672.16;5004090;28;20490;-65
2021/05/23 01:05:26;;;;;;;3.75;0.93;;;;;;;6.17;52.47;100682.19;5004000;28;20386;-67
2021/05/23 01:07:52;;;;;;;3.97;0.47;;;;;;;6.01;52.80;100687.72;5003309;28;20025;-66
2021/05/23 01:10:21;;;;;;;6.45;0.82;;;;;;;5.91;52.76;100678.50;5003299;28;20042;-65
2021/05/23 01:12:53;;;;;;;5.78;0.73;;;;;;;5.40;53.83;100689.13;5003369;28;20536;-66
2021/05/23 01:15:43;;;;;;;8.23;0.85;;;;;;;5.73;52.84;100689.28;5004595;28;20033;-67
2021/05/23 01:18:21;;;;;;;3.30;1.45;;;;;;;5.82;52.48;100686.50;5005363;28;20491;-66
2021/05/23 01:21:00;;;;;;;12.05;1.30;;;;;;;5.64;53.25;100698.13;5003682;28;20038;-66
2021/05/23 01:23:34;;;;;;;7.70;1.10;;;;;;;5.73;52.87;100702.25;5002792;28;20662;-65
2021/05/23 01:26:07;;;;;;;6.45;0.68;;;;;;;5.91;52.21;100696.66;5003926;28;20025;-66
2021/05/23 01:29:06;;;;;;;7.68;1.13;;;;;;;5.80;52.37;100694.28;5004417;28;20099;-67
2021/05/23 01:31:33;;;;;;;9.85;0.57;;;;;;;6.34;51.18;100690.44;4976602;28;20046;-68
2021/05/23 01:34:00;;;;;;;2.92;1.00;;;;;;;5.84;52.26;100700.28;5002712;28;20049;-67
2021/05/23 01:36:32;;;;;;;5.60;0.90;;;;;;;5.29;53.05;100694.53;5004079;28;20033;-67
2021/05/23 01:38:59;;;;;;;12.02;0.50;;;;;;;5.95;51.65;100693.09;5004087;28;20084;-66
2021/05/23 01:41:26;;;;;;;6.25;0.45;;;;;;;5.28;52.92;100697.16;5004858;28;20030;-67
2021/05/23 01:43:54;;;;;;;8.18;0.60;;;;;;;6.09;51.17;100696.19;5003351;28;20037;-68
2021/05/23 01:46:22;;;;;;;7.30;1.20;;;;;;;5.48;52.43;100699.34;5002985;28;20076;-67
2021/05/23 01:48:48;;;;;;;7.85;0.98;;;;;;;5.64;51.98;100700.72;5004677;28;20124;-68
2021/05/23 01:51:13;;;;;;;7.50;0.55;;;;;;;5.70;52.10;100704.91;5003394;28;20413;-66
2021/05/23 01:53:42;;;;;;;12.98;0.77;;;;;;;5.84;51.40;100711.50;5004485;28;20084;-65
2021/05/23 01:56:09;;;;;;;9.23;0.60;;;;;;;5.88;51.81;100701.88;5008323;28;20057;-66
2021/05/23 01:58:38;;;;;;;6.22;0.70;;;;;;;6.15;50.84;100709.91;5007294;28;20038;-66
2021/05/23 02:01:04;;;;;;;9.75;0.85;;;;;;;6.11;50.91;100701.38;5005989;28;20048;-66
2021/05/23 02:03:31;;;;;;;4.28;0.95;;;;;;;5.36;52.67;100703.88;5006076;28;20231;-66
2021/05/23 02:05:59;;;;;;;6.93;0.90;;;;;;;5.54;52.14;100712.16;5008091;28;20398;-66
2021/05/23 02:08:27;;;;;;;3.38;0.60;;;;;;;5.93;51.39;100710.44;5007772;28;20152;-67
2021/05/23 02:10:57;;;;;;;2.00;0.55;;;;;;;6.05;51.02;100712.72;4990075;28;20040;-67
2021/05/23 02:13:24;;;;;;;4.63;0.85;;;;;;;6.25;50.63;100716.59;5005731;28;20445;-66
2021/05/23 02:15:51;;;;;;;9.63;1.25;;;;;;;6.03;51.21;100706.72;5007261;28;20124;-66
2021/05/23 02:18:17;;;;;;;7.35;0.63;;;;;;;5.85;51.54;100717.53;4999388;28;20062;-66
2021/05/23 02:20:44;;;;;;;5.15;0.68;;;;;;;5.93;51.47;100720.81;5022892;28;20120;-67
2021/05/23 02:23:18;;;;;;;6.03;0.98;;;;;;;6.24;50.75;100715.75;5006787;28;20172;-67
2021/05/23 02:25:43;;;;;;;4.82;0.60;;;;;;;6.41;50.59;100723.13;5006420;28;20041;-67
2021/05/23 02:28:10;;;;;;;8.35;1.90;;;;;;;6.12;51.00;100713.44;5007175;28;20486;-67
2021/05/23 02:30:42;;;;;;;10.57;1.50;;;;;;;6.08;51.48;100716.97;5006646;28;20069;-66
2021/05/23 02:33:09;;;;;;;5.50;0.38;;;;;;;5.79;51.93;100722.84;5004906;28;20037;-67
2021/05/23 02:35:38;;;;;;;4.53;0.40;;;;;;;6.32;51.20;100723.38;5006664;28;20514;-67
2021/05/23 02:38:08;;;;;;;3.10;0.73;;;;;;;6.47;50.23;100716.94;5007253;28;20025;-68
2021/05/23 02:40:35;;;;;;;10.02;0.65;;;;;;;6.13;51.16;100733.31;5007574;28;20049;-68
2021/05/23 02:43:02;;;;;;;7.88;0.60;;;;;;;5.92;52.21;100726.03;5007109;28;20041;-67
2021/05/23 02:45:28;;;;;;;13.48;1.98;;;;;;;5.51;53.12;100725.22;5006269;28;20532;-68
2021/05/23 02:47:54;;;;;;;8.70;0.70;;;;;;;5.73;52.61;100729.03;5008489;28;20030;-66
2021/05/23 02:50:28;;;;;;;6.40;0.68;;;;;;;5.83;52.43;100732.28;5006296;28;20518;-67
2021/05/23 02:52:55;;;;;;;11.35;0.88;;;;;;;5.97;51.75;100731.94;5000933;28;20026;-66
2021/05/23 02:55:21;;;;;;;16.70;1.02;;;;;;;6.07;51.88;100736.91;5004326;28;20623;-66
2021/05/23 02:57:47;;;;;;;2.67;0.88;;;;;;;6.08;51.74;100728.25;5006899;28;20038;-65
2021/05/23 03:00:19;;;;;;;10.02;0.85;;;;;;;5.75;52.27;100736.75;5006058;28;20088;-66
2021/05/23 03:02:45;;;;;;;;;;;;;;;6.00;51.86;100726.72;5006731;28;20041;-69
2021/05/23 03:05:13;;;;;;;7.47;0.50;;;;;;;6.39;50.67;100732.69;4999816;28;19999;-68
2021/05/23 03:07:45;;;;;;;6.40;1.13;;;;;;;6.56;50.72;100726.25;5007238;28;20042;-66
2021/05/23 03:10:17;;;;;;;4.75;0.85;;;;;;;6.36;51.14;100737.97;5005924;28;20038;-67
2021/05/23 03:12:44;;;;;;;3.90;0.82;;;;;;;5.85;52.13;100730.50;5007038;28;20050;-66
2021/05/23 03:15:13;;;;;;;4.88;0.60;;;;;;;6.35;50.54;100738.88;5005496;28;20060;-66
2021/05/23 03:17:41;;;;;;;6.97;0.60;;;;;;;6.47;50.33;100748.09;5005524;28;20862;-69
2021/05/23 03:20:09;;;;;;;5.93;0.47;;;;;;;6.16;51.31;100753.16;5006770;28;20041;-70
2021/05/23 03:22:40;;;;;;;9.68;1.02;;;;;;;6.11;51.48;100750.66;5006548;28;20466;-69
2021/05/23 03:25:07;;;;;;;3.90;1.38;;;;;;;5.62;52.47;100760.38;5006571;28;20038;-67
2021/05/23 03:27:33;;;;;;;6.38;0.57;;;;;;;6.24;51.38;100761.63;5007089;28;20042;-68
2021/05/23 03:29:59;;;;;;;5.03;1.10;;;;;;;6.36;51.07;100771.72;5006342;28;20041;-69
2021/05/23 03:32:25;;;;;;;12.10;0.68;;;;;;;6.09;51.65;100779.22;5007114;28;20129;-69
2021/05/23 03:34:50;;;;;;;5.07;0.43;;;;;;;5.93;52.39;100777.88;5006767;28;20037;-69
2021/05/23 03:37:16;;;;;;;8.70;0.95;;;;;;;5.72;52.77;100786.97;5006835;28;20490;-69
2021/05/23 03:39:41;;;;;;;7.78;0.77;;;;;;;6.24;51.62;100783.22;5006040;28;20598;-68
2021/05/23 03:42:07;;;;;;;6.80;1.05;;;;;;;6.22;51.85;100784.16;5006058;28;20080;-69
2021/05/23 03:44:33;;;;;;;5.05;0.73;;;;;;;6.16;51.89;100785.13;5005859;28;20459;-68
2021/05/23 03:47:00;;;;;;;6.68;0.80;;;;;;;6.49;51.13;100786.13;5006813;28;20112;-69
2021/05/23 03:49:26;;;;;;;12.05;1.08;;;;;;;6.46;51.73;100787.91;5021749;28;20034;-68
2021/05/23 03:51:52;;;;;;;8.25;0.88;;;;;;;6.59;50.99;100793.69;5007140;28;20064;-66
2021/05/23 03:54:17;;;;;;;7.15;1.10;;;;;;;6.72;50.84;100783.84;5006790;28;20069;-68
2021/05/23 03:56:43;;;;;;;4.35;0.75;;;;;;;6.85;50.52;100796.47;5005616;28;20408;-66
2021/05/23 03:59:11;;;;;;;5.57;0.57;;;;;;;6.70;50.74;100796.88;5006427;28;20040;-67
2021/05/23 04:01:38;;;;;;;6.35;0.90;;;;;;;6.87;50.49;100794.69;5005769;28;20038;-67
2021/05/23 04:04:06;;;;;;;7.40;0.60;;;;;;;6.62;50.97;100793.59;5003054;28;20042;-66
2021/05/23 04:06:31;;;;;;;4.07;0.60;;;;;;;6.40;51.51;100804.50;5004500;28;20046;-67
2021/05/23 04:08:57;;;;;;;5.35;1.13;;;;;;;6.32;52.12;100800.41;5004639;28;20040;-67
2021/05/23 04:11:32;;;;;;;11.35;1.23;;;;;;;6.74;50.69;100811.47;5006069;28;20375;-66
2021/05/23 04:13:58;;;;;;;9.07;1.17;;;;;;;6.57;51.11;100814.47;5003332;28;20034;-67
2021/05/23 04:16:23;;;;;;;7.68;0.50;;;;;;;6.72;51.02;100813.25;5005413;28;20111;-66
2021/05/23 04:18:51;;;;;;;8.57;0.60;;;;;;;6.83;50.76;100816.44;5003404;28;20465;-68
2021/05/23 04:21:16;;;;;;;2.85;0.77;;;;;;;6.90;50.69;100819.75;5005939;28;20036;-68
2021/05/23 04:23:42;;;;;;;9.45;0.85;;;;;;;6.42;51.49;100820.91;5005372;28;20038;-69
2021/05/23 04:26:08;;;;;;;8.23;0.68;;;;;;;6.85;51.00;100832.84;5004741;28;20636;-67
2021/05/23 04:28:35;;;;;;;2.83;0.63;;;;;;;6.27;52.65;100836.81;5003343;28;20041;-66
2021/05/23 04:31:01;;;;;;;7.53;0.47;;;;;;;6.61;51.56;100843.84;5006032;28;20076;-71
2021/05/23 04:33:26;;;;;;;7.47;0.63;;;;;;;6.78;51.49;100846.88;5004303;28;20029;-70
2021/05/23 04:35:55;;;;;;;5.50;0.63;;;;;;;6.95;50.69;100854.25;5021615;28;20026;-69
2021/05/23 04:38:23;;;;;;;4.00;0.77;;;;;;;6.97;50.61;100862.00;5006043;28;20056;-70
2021/05/23 04:40:48;;;;;;;5.95;1.17;;;;;;;6.51;51.51;100858.78;5005621;28;20030;-71
2021/05/23 04:43:14;;;;;;;7.13;0.57;;;;;;;6.56;51.39;100850.91;5005530;28;20037;-71
2021/05/23 04:45:39;;;;;;;8.68;1.00;;;;;;;6.57;51.97;100847.41;5020589;28;20046;-69
2021/05/23 04:48:06;;;;;;;4.55;0.60;;;;;;;6.98;51.05;100853.34;5005848;28;20040;-67
2021/05/23 04:50:32;;;;;;;4.07;0.70;;;;;;;6.99;51.26;100857.63;5005309;28;20038;-68
2021/05/23 04:52:57;;;;;;;9.00;0.52;;;;;;;6.94;51.30;100862.09;5006228;28;20041;-67
2021/05/23 04:55:23;;;;;;;2.83;0.45;;;;;;;7.05;49.52;100862.69;5004207;28;20030;-66
2021/05/23 04:57:48;;;;;;;6.35;0.32;;;;;;;8.05;47.41;100862.59;5005851;28;20030;-67
2021/05/23 05:00:14;;;;;;;5.47;1.00;;;;;;;8.66;46.42;100863.28;5005257;28;20033;-68
2021/05/23 05:02:43;;;;;;;1.30;0.40;;;;;;;9.08;44.90;100867.19;5004147;28;20084;-68
2021/05/23 05:05:12;;;;;;;4.32;0.40;;;;;;;10.34;43.80;100855.63;5004287;28;20498;-68
2021/05/23 05:07:40;;;;;;;4.63;0.30;;;;;;;11.17;40.30;100867.97;5005703;28;20029;-67
2021/05/23 05:10:09;;;;;;;5.05;1.15;;;;;;;11.14;39.78;100867.22;4994769;28;20061;-66
2021/05/23 05:12:34;;;;;;;8.00;1.30;;;;;;;10.77;42.00;100869.59;5005217;28;20066;-68
2021/05/23 05:15:00;;;;;;;7.15;0.98;;;;;;;10.63;42.24;100870.13;5004947;28;20160;-70
2021/05/23 05:17:25;;;;;;;8.38;1.35;;;;;;;10.15;42.30;100871.16;5005179;28;20515;-70
2021/05/23 05:19:51;;;;;;;10.82;1.42;;;;;;;9.33;44.07;100881.06;5005091;28;20089;-71
2021/05/23 05:22:16;;;;;;;6.97;0.90;;;;;;;9.64;43.42;100874.78;5005088;28;20116;-71
2021/05/23 05:24:41;;;;;;;5.18;0.60;;;;;;;10.66;40.94;100876.16;5003726;28;20092;-67
2021/05/23 05:27:07;;;;;;;9.77;0.60;;;;;;;11.31;40.07;100876.97;5007176;28;20034;-69
2021/05/23 05:29:32;;;;;;;11.27;0.70;;;;;;;13.20;36.79;100870.78;5007639;28;20037;-67
2021/05/23 05:32:02;;;;;;;1.92;0.25;;;;;;;15.24;33.53;100869.22;5007946;28;20099;-67
2021/05/23 05:34:27;;;;;;;5.60;1.13;;;;;;;15.93;32.66;100863.22;5006638;28;20040;-66
2021/05/23 05:36:55;;;;;;;6.75;0.50;;;;;;;16.69;30.38;100861.03;5007788;28;20041;-68
2021/05/23 05:39:21;;;;;;;9.65;0.45;;;;;;;14.50;32.76;100878.75;5007770;28;20054;-68
2021/05/23 05:41:46;;;;;;;2.75;0.50;;;;;;;16.81;31.07;100868.19;5006863;28;20397;-67
2021/05/23 05:44:12;;;;;;;4.15;0.52;;;;;;;17.33;30.19;100871.72;5007564;28;20506;-66
2021/05/23 05:46:37;;;;;;;3.92;1.25;;;;;;;18.17;28.56;100871.09;5007925;28;20542;-68
2021/05/23 05:49:03;;;;;;;8.40;0.63;;;;;;;18.84;26.73;100867.09;5007282;28;20034;-69
2021/05/23 05:51:28;;;;;;;7.15;0.32;;;;;;;17.69;28.68;100873.63;5006887;28;20053;-67
2021/05/23 05:53:54;;;;;;;4.13;0.52;;;;;;;18.71;28.57;100871.63;5008827;28;20042;-67
2021/05/23 05:56:19;;;;;;;4.70;0.68;;;;;;;17.58;29.00;100874.41;5007362;28;20489;-66
2021/05/23 05:58:45;;;;;;;3.15;0.50;;;;;;;18.17;26.96;100878.19;5008316;28;20049;-72
2021/05/23 06:01:10;;;;;;;2.95;0.50;;;;;;;19.16;26.67;100877.91;5006568;28;20034;-72
2021/05/23 06:03:36;;;;;;;6.38;0.50;;;;;;;19.27;25.99;100880.59;5007760;28;20062;-71
2021/05/23 06:06:01;;;;;;;8.32;0.55;;;;;;;19.67;25.65;100872.22;5005732;28;20044;-72
2021/05/23 06:08:27;;;;;;;4.80;0.52;;;;;;;19.39;26.24;100875.31;5006945;28;20029;-70
2021/05/23 06:10:52;;;;;;;5.85;0.63;;;;;;;21.04;24.89;100879.72;5006229;28;20057;-71
2021/05/23 06:13:20;;;;;;;1.58;0.22;;;;;;;19.95;24.82;100879.78;5007259;28;20145;-71
2021/05/23 06:15:46;;;;;;;1.25;0.30;;;;;;;18.02;28.17;100901.28;5006530;28;20696;-70
2021/05/23 06:18:14;;;;;;;6.35;0.30;;;;;;;17.12;28.75;100896.00;5008402;28;20117;-70
2021/05/23 06:20:40;;;;;;;6.85;0.60;;;;;;;16.99;30.12;100895.13;5007341;28;20033;-71
2021/05/23 06:23:05;;;;;;;3.95;0.30;;;;;;;16.24;29.43;100897.38;5007068;28;20041;-67
2021/05/23 06:25:31;;;;;;;11.55;1.05;;;;;;;13.90;33.88;100914.41;5006823;28;20072;-68
2021/05/23 06:27:56;;;;;;;8.68;0.40;;;;;;;16.40;31.02;100908.66;5007367;28;20045;-68
2021/05/23 06:30:22;;;;;;;6.28;0.40;;;;;;;17.89;28.41;100911.88;5007662;28;20034;-68
2021/05/23 06:32:48;;;;;;;4.25;0.80;;;;;;;16.49;29.53;100915.09;5021503;28;20036;-70
2021/05/23 06:35:17;;;;;;;6.97;0.40;;;;;;;15.67;30.98;100924.59;5008445;28;20048;-70
2021/05/23 06:37:45;;;;;;;4.55;0.73;;;;;;;16.45;29.02;100925.03;5021860;28;20130;-67
2021/05/23 06:40:11;;;;;;;2.45;0.40;;;;;;;18.21;27.16;100932.59;5006018;28;20084;-69
2021/05/23 06:42:37;;;;;;;3.03;0.20;;;;;;;18.65;26.77;100932.03;5006257;28;20034;-69
2021/05/23 06:45:03;;;;;;;3.33;0.47;;;;;;;18.73;27.08;100939.38;5006993;28;20026;-67
2021/05/23 06:47:28;;;;;;;3.67;0.65;;;;;;;19.11;25.71;100932.22;5007222;28;20033;-68
2021/05/23 06:49:54;;;;;;;1.90;0.30;;;;;;;16.23;28.13;100941.34;5008892;28;20026;-69
2021/05/23 06:52:19;;;;;;;2.95;0.22;;;;;;;14.27;31.01;100951.81;5007105;28;20502;-69
2021/05/23 06:54:45;;;;;;;5.18;0.43;;;;;;;17.48;28.07;100954.41;5005922;28;20438;-67
2021/05/23 06:57:10;;;;;;;1.35;0.50;;;;;;;16.22;28.49;100947.59;5009384;28;20105;-68
2021/05/23 06:59:36;;;;;;;4.00;0.40;;;;;;;15.86;29.92;100958.56;5006926;28;20045;-68
2021/05/23 07:02:01;;;;;;;2.33;0.20;;;;;;;18.43;27.00;100959.19;5007762;28;20069;-68
2021/05/23 07:04:27;;;;;;;2.40;0.47;;;;;;;17.92;26.94;100958.44;5006122;28;20026;-68
2021/05/23 07:06:52;;;;;;;4.53;0.20;;;;;;;16.13;29.48;100956.03;5007248;28;20042;-69
2021/05/23 07:09:20;;;;;;;3.45;0.32;;;;;;;15.88;28.84;100956.69;5006578;28;20026;-68
2021/05/23 07:11:48;;;;;;;5.55;0.30;;;;;;;14.62;31.04;100969.28;5006688;28;20506;-68
2021/05/23 07:14:16;;;;;;;4.28;0.20;;;;;;;13.84;33.16;100966.41;5006757;28;20036;-68
2021/05/23 07:16:42;;;;;;;7.47;0.70;;;;;;;11.66;37.17;100974.91;5005870;28;20034;-68
2021/05/23 07:19:07;;;;;;;4.57;0.30;;;;;;;11.75;37.35;100978.91;5006320;28;20061;-69
2021/05/23 07:21:33;;;;;;;2.05;0.60;;;;;;;13.11;36.05;100979.69;5005922;28;20046;-72
2021/05/23 07:23:58;;;;;;;3.08;0.30;;;;;;;16.83;31.80;100971.88;5006567;28;20504;-71
2021/05/23 07:26:24;;;;;;;3.15;0.30;;;;;;;19.13;26.62;100972.69;5007618;28;20030;-69
2021/05/23 07:28:49;;;;;;;3.83;0.10;;;;;;;20.72;22.94;100975.31;5006066;28;20028;-72
2021/05/23 07:31:18;;;;;;;4.55;0.52;;;;;;;19.19;25.13;100974.88;5006679;28;20417;-68
2021/05/23 07:33:43;;;;;;;2.83;0.30;;;;;;;19.55;24.16;100979.22;5005284;28;20041;-71
2021/05/23 07:36:10;;;;;;;5.93;0.20;;;;;;;20.02;23.15;100981.81;5005148;28;20037;-70
2021/05/23 07:38:36;;;;;;;2.25;0.15;;;;;;;18.54;24.70;100979.59;5005234;28;20036;-66
2021/05/23 07:41:03;;;;;;;5.22;0.38;;;;;;;17.11;26.46;100994.66;5005973;28;20113;-68
2021/05/23 07:43:29;;;;;;;6.10;0.30;;;;;;;17.22;25.75;100984.25;5000315;28;20037;-69
2021/05/23 07:45:54;;;;;;;0.57;0.10;;;;;;;18.26;25.33;100986.84;5005562;28;20089;-66
2021/05/23 07:48:20;;;;;;;4.72;0.52;;;;;;;16.39;27.28;100991.34;5004623;28;20058;-66
2021/05/23 07:50:47;;;;;;;3.30;0.73;;;;;;;16.14;27.42;100989.41;5004939;28;20046;-67
2021/05/23 07:53:13;;;;;;;2.65;0.22;;;;;;;16.03;28.03;100990.06;5005716;28;20033;-67
2021/05/23 07:55:38;;;;;;;3.15;0.35;;;;;;;17.90;26.51;100989.41;5004478;28;20029;-68
2021/05/23 07:58:04;;;;;;;1.27;0.40;;;;;;;18.79;24.51;100989.25;5005832;28;20129;-67
2021/05/23 08:00:30;;;;;;;6.53;0.45;;;;;;;20.23;24.27;100992.56;5004397;28;20053;-68
2021/05/23 08:02:55;;;;;;;2.53;0.15;;;;;;;17.00;25.87;100995.38;5005871;28;20057;-68
2021/05/23 08:05:21;;;;;;;2.00;0.30;;;;;;;14.34;30.51;101005.81;5004528;28;20041;-67
2021/05/23 08:07:46;;;;;;;3.92;0.30;;;;;;;13.93;32.48;101000.09;5005773;28;20036;-66
2021/05/23 08:10:12;;;;;;;3.35;0.20;;;;;;;15.21;31.80;101001.03;5005775;28;20042;-67
2021/05/23 08:12:38;;;;;;;2.85;0.22;;;;;;;15.16;30.31;101003.94;5004846;28;20468;-67
2021/05/23 08:15:08;;;;;;;1.65;0.10;;;;;;;14.75;31.17;101009.75;5004222;28;20030;-66
2021/05/23 08:17:37;;;;;;;1.63;0.22;;;;;;;14.03;32.12;101019.72;5003901;28;20044;-66
2021/05/23 08:20:05;;;;;;;2.17;0.20;;;;;;;14.46;32.00;101008.72;5002986;28;20562;-67
2021/05/23 08:22:34;;;;;;;1.77;0.28;;;;;;;16.22;28.77;101010.88;5004075;28;20038;-67
2021/05/23 08:25:02;;;;;;;3.30;0.30;;;;;;;17.99;27.04;101008.13;5004512;28;20413;-67
2021/05/23 08:27:28;;;;;;;2.70;0.28;;;;;;;16.79;27.14;101016.06;5001988;28;20105;-67
2021/05/23 08:29:53;;;;;;;2.88;0.30;;;;;;;15.29;29.63;101017.28;5004502;28;20386;-67
2021/05/23 08:32:23;;;;;;;2.45;0.30;;;;;;;14.49;31.01;101027.81;5002498;28;20341;-68
2021/05/23 08:34:49;;;;;;;1.55;0.20;;;;;;;13.61;32.17;101025.41;5003842;28;20160;-68
2021/05/23 08:37:16;;;;;;;2.92;0.30;;;;;;;12.87;33.04;101029.81;5001973;28;20541;-67
2021/05/23 08:39:42;;;;;;;1.88;0.20;;;;;;;12.41;33.96;101036.28;5002668;28;20049;-66
2021/05/23 08:42:08;;;;;;;6.07;0.40;;;;;;;12.14;35.47;101044.47;5003676;28;20033;-67
2021/05/23 08:44:33;;;;;;;2.03;0.25;;;;;;;11.81;36.68;101037.13;5003845;28;20049;-67
2021/05/23 08:47:00;;;;;;;3.60;0.85;;;;;;;13.84;31.82;101038.19;4998167;28;20121;-67
2021/05/23 08:49:26;;;;;;;2.30;0.32;;;;;;;14.88;30.82;101038.84;5005372;28;20037;-66
2021/05/23 08:51:52;;;;;;;1.67;0.22;;;;;;;15.75;29.77;101033.00;5005100;28;20025;-69
2021/05/23 08:54:18;;;;;;;0.90;0.17;;;;;;;16.28;28.77;101039.50;5002678;28;20585;-66
2021/05/23 08:56:45;;;;;;;1.20;0.35;;;;;;;17.00;26.96;101031.47;5001721;28;20076;-67
2021/05/23 08:59:11;;;;;;;3.72;0.30;;;;;;;16.59;26.31;101035.78;4999989;28;20030;-66
2021/05/23 09:01:38;;;;;;;4.60;0.20;;;;;;;14.70;28.25;101041.59;5000762;28;20044;-67
2021/05/23 09:04:06;;;;;;;3.25;0.20;;;;;;;17.19;26.78;101031.97;5000821;28;20046;-67
2021/05/23 09:06:34;;;;;;;1.15;0.20;;;;;;;18.45;25.20;101041.09;5000522;28;20041;-67
2021/05/23 09:09:05;;;;;;;1.30;0.10;;;;;;;19.43;23.80;101035.78;5001675;28;20032;-67
2021/05/23 09:11:32;;;;;;;1.65;0.10;;;;;;;19.43;22.66;101035.78;5000557;28;20044;-68
2021/05/23 09:13:58;;;;;;;1.13;0.10;;;;;;;18.14;23.18;101039.75;5001731;28;20072;-67
2021/05/23 09:16:24;;;;;;;1.08;0.20;;;;;;;18.14;24.30;101043.25;5000355;28;20462;-66
2021/05/23 09:18:51;;;;;;;2.83;0.10;;;;;;;17.40;25.24;101044.72;4984628;28;20030;-67
2021/05/23 09:21:29;;;;;;;0.43;0.15;;;;;;;17.98;24.39;101038.19;4999054;28;20042;-67
2021/05/23 09:24:07;;;;;;;2.67;0.20;;;;;;;19.12;24.12;101051.31;5002139;28;20495;-66
2021/05/23 09:26:42;;;;;;;1.30;0.17;;;;;;;18.50;24.25;101049.59;5000219;28;20045;-67
2021/05/23 09:29:10;;;;;;;1.65;0.20;;;;;;;18.99;24.33;101047.88;5001162;28;20038;-68
2021/05/23 09:31:36;;;;;;;0.60;0.20;;;;;;;17.93;24.29;101047.38;4999756;28;20843;-66
2021/05/23 09:34:03;;;;;;;2.80;0.15;;;;;;;17.82;24.85;101048.09;5000730;28;20414;-67
2021/05/23 09:36:29;;;;;;;0.80;0.10;;;;;;;18.30;25.34;101051.00;4999822;28;20033;-68
2021/05/23 09:39:00;;;;;;;5.82;0.47;;;;;;;17.63;25.21;101054.63;5002568;28;20089;-67
2021/05/23 09:41:35;;;;;;;2.28;0.10;;;;;;;17.13;26.24;101050.00;4999393;28;20033;-67
2021/05/23 09:44:10;;;;;;;0.47;0.10;;;;;;;16.98;23.60;101058.00;5016550;28;20443;-68
2021/05/23 09:46:36;;;;;;;0.73;0.20;;;;;;;16.59;23.84;101053.41;5000222;28;20577;-68
2021/05/23 09:49:08;;;;;;;1.20;0.28;;;;;;;16.76;25.94;101063.78;5001392;28;20026;-68
2021/05/23 09:51:34;;;;;;;3.55;0.32;;;;;;;15.14;26.58;101075.09;5000555;28;20060;-68
2021/05/23 09:54:00;;;;;;;0.38;0.10;;;;;;;17.18;25.17;101069.91;4999227;28;20497;-67
2021/05/23 09:56:31;;;;;;;2.15;0.20;;;;;;;16.88;25.03;101067.44;5002040;28;20033;-66
2021/05/23 09:58:57;;;;;;;1.30;0.20;;;;;;;16.28;25.39;101070.28;5001350;28;20038;-66
2021/05/23 10:01:28;;;;;;;1.50;0.50;;;;;;;15.41;26.75;101082.38;5000965;28;20042;-66
2021/05/23 10:03:56;;;;;;;3.05;0.10;;;;;;;14.83;27.79;101085.63;4997105;28;20041;-69
2021/05/23 10:06:27;;;;;;;2.90;0.15;;;;;;;13.25;31.34;101086.59;5001117;28;20063;-66
2021/05/23 10:08:54;;;;;;;1.40;0.20;;;;;;;13.22;31.54;101094.63;5000929;28;20055;-66
2021/05/23 10:11:20;;;;;;;2.92;0.30;;;;;;;12.58;33.53;101098.44;4998863;28;20030;-66
2021/05/23 10:13:45;;;;;;;2.25;0.30;;;;;;;12.37;34.24;101095.84;5000343;28;20609;-67
2021/05/23 10:16:12;;;;;;;1.40;0.40;;;;;;;13.06;33.36;101100.63;5005248;28;20498;-68
2021/05/23 10:18:40;;;;;;;2.47;0.20;;;;;;;13.20;32.59;101099.13;5003598;28;20029;-67
2021/05/23 10:21:06;;;;;;;1.13;0.20;;;;;;;13.21;32.22;101101.66;5005126;28;20037;-68
2021/05/23 10:23:36;;;;;;;1.80;0.20;;;;;;;13.71;31.75;101106.25;5003955;28;20065;-67
2021/05/23 10:26:08;;;;;;;0.47;0.20;;;;;;;14.65;31.36;101109.34;5002912;28;20031;-68
2021/05/23 10:28:39;;;;;;;1.15;0.10;;;;;;;15.21;28.90;101111.59;5002565;28;20112;-67
2021/05/23 10:31:05;;;;;;;3.42;0.30;;;;;;;15.37;30.27;101123.88;5020262;28;20044;-67
2021/05/23 10:33:33;;;;;;;1.38;0.20;;;;;;;15.96;29.23;101104.69;4997651;28;20402;-68
2021/05/23 10:35:59;;;;;;;1.33;0.13;;;;;;;13.69;31.33;101112.53;5005173;28;20034;-67
2021/05/23 10:38:26;;;;;;;0.77;0.28;;;;;;;14.61;31.73;101117.50;4998408;28;20049;-67
2021/05/23 10:41:07;;;;;;;2.88;0.20;;;;;;;14.41;31.20;101123.81;5005547;28;20029;-66
2021/05/23 10:43:36;;;;;;;2.95;0.30;;;;;;;13.72;31.47;101123.75;5003095;28;20038;-68
2021/05/23 10:46:14;;;;;;;4.85;0.30;;;;;;;13.16;32.69;101131.66;5004586;28;20517;-66
2021/05/23 10:48:57;;;;;;;1.58;0.20;;;;;;;13.40;32.99;101142.78;5002088;28;20033;-68
2021/05/23 10:51:23;;;;;;;2.83;0.55;;;;;;;13.31;33.46;101138.81;5005279;28;20057;-67
2021/05/23 10:53:50;;;;;;;10.52;0.80;;;;;;;12.01;35.25;101135.81;4999844;28;20116;-67
2021/05/23 10:56:29;;;;;;;5.45;0.50;;;;;;;12.04;35.97;101138.34;5003405;28;20409;-67
2021/05/23 10:59:05;;;;;;;2.50;0.75;;;;;;;12.17;35.99;101143.03;5004074;28;20042;-67
2021/05/23 11:01:38;;;;;;;1.00;0.30;;;;;;;12.60;35.49;101139.44;5002406;28;20069;-67
2021/05/23 11:04:11;;;;;;;2.90;0.40;;;;;;;12.77;35.26;101146.56;5003759;28;20366;-66
2021/05/23 11:06:37;;;;;;;4.28;1.52;;;;;;;12.08;36.56;101145.13;5002708;28;20042;-66
2021/05/23 11:09:14;;;;;;;4.70;0.40;;;;;;;11.69;37.21;101147.59;5004216;28;20030;-67
2021/05/23 11:11:40;;;;;;;4.60;0.50;;;;;;;12.56;36.28;101147.47;5001825;28;20041;-68
2021/05/23 11:14:21;;;;;;;1.33;0.20;;;;;;;13.13;35.77;101147.56;5002138;28;20041;-66
2021/05/23 11:16:50;;;;;;;2.35;0.40;;;;;;;12.86;35.86;101148.75;5017591;28;20037;-66
2021/05/23 11:19:17;;;;;;;4.68;0.80;;;;;;;11.99;37.06;101149.91;5001671;28;20387;-67
2021/05/23 11:21:44;;;;;;;4.78;0.85;;;;;;;12.28;37.63;101149.50;5004007;28;20121;-67
2021/05/23 11:24:10;;;;;;;3.72;0.90;;;;;;;12.36;37.27;101140.50;5001394;28;20434;-66
2021/05/23 11:26:37;;;;;;;3.50;0.85;;;;;;;12.46;36.74;101139.16;5000439;28;20042;-67
2021/05/23 11:29:05;;;;;;;3.10;0.40;;;;;;;12.53;37.64;101131.88;5003103;28;20069;-66
2021/05/23 11:31:35;;;;;;;3.85;1.02;;;;;;;12.60;37.65;101147.28;5000639;28;20614;-67